createdAt,value
2023-01-06T00:03:35.571Z,9.93
2023-01-06T00:08:37.592Z,11.02
2023-01-06T00:13:40.386Z,10.02
2023-01-06T00:18:42.417Z,10.65
2023-01-06T00:23:44.136Z,10.23
2023-01-06T00:28:45.614Z,11.57
2023-01-06T00:33:47.095Z,10.55
2023-01-06T00:38:49.994Z,11.05
2023-01-06T00:43:51.490Z,11.93
2023-01-06T00:49:04.197Z,11.20
2023-01-06T00:54:08.463Z,12.25
2023-01-06T00:59:11.931Z,11.25
2023-01-06T01:04:14.081Z,12.55
2023-01-06T01:09:24.333Z,11.20
2023-01-06T01:14:25.842Z,12.65
2023-01-06T01:19:28.192Z,12.63
2023-01-06T01:24:29.873Z,13.38
2023-01-06T01:29:31.336Z,11.38
2023-01-06T01:34:32.917Z,12.60
2023-01-06T01:39:34.408Z,11.60
2023-01-06T01:44:58.966Z,12.00
2023-01-06T01:50:09.649Z,9.48
2023-01-06T01:55:12.584Z,8.88
2023-01-06T02:00:14.650Z,8.88
2023-01-06T02:05:21.284Z,8.48
2023-01-06T02:10:24.400Z,8.70
2023-01-06T02:15:31.692Z,7.20
2023-01-06T02:21:01.007Z,7.28
2023-01-06T02:26:11.499Z,6.47
2023-01-06T02:31:37.623Z,6.40
2023-01-06T02:36:52.730Z,6.40
2023-01-06T02:42:01.465Z,6.45
2023-01-06T02:47:24.185Z,6.85
2023-01-06T02:52:40.895Z,6.45
2023-01-06T02:57:49.382Z,7.38
2023-01-06T03:02:57.702Z,7.65
2023-01-06T03:08:02.282Z,7.65
2023-01-06T03:13:15.802Z,9.85
2023-01-06T03:18:17.745Z,10.95
2023-01-06T03:23:20.247Z,13.52
2023-01-06T03:28:21.706Z,14.65
2023-01-06T03:33:37.843Z,15.60
2023-01-06T03:38:52.314Z,16.48
2023-01-06T03:49:36.051Z,18.83
2023-01-06T03:54:52.380Z,17.17
2023-01-06T04:00:03.482Z,17.63
2023-01-06T04:05:10.553Z,17.45
2023-01-06T04:10:16.028Z,17.02
2023-01-06T04:15:23.434Z,17.52
2023-01-06T04:20:28.137Z,17.65
2023-01-06T04:25:29.560Z,18.20
2023-01-06T04:30:31.089Z,17.05
2023-01-06T04:35:32.542Z,18.63
2023-01-06T04:40:34.032Z,17.80
2023-01-06T04:45:35.629Z,17.90
2023-01-06T04:50:38.202Z,16.98
2023-01-06T04:55:40.873Z,17.23
2023-01-06T05:00:42.384Z,18.08
2023-01-06T05:05:43.883Z,19.67
2023-01-06T05:10:45.355Z,19.92
2023-01-06T05:15:46.774Z,20.80
2023-01-06T05:20:55.162Z,21.90
2023-01-06T05:25:56.834Z,22.48
2023-01-06T05:31:02.803Z,23.73
2023-01-06T05:36:08.143Z,25.42
2023-01-06T05:41:09.585Z,26.08
2023-01-06T05:46:12.611Z,27.75
2023-01-06T05:51:16.203Z,29.92
2023-01-06T05:56:19.559Z,27.80
2023-01-06T06:01:31.593Z,28.50
2023-01-06T06:06:33.202Z,30.38
2023-01-06T06:11:34.630Z,28.77
2023-01-06T06:16:36.483Z,28.15
2023-01-06T06:21:37.971Z,28.25
2023-01-06T06:26:39.446Z,27.67
2023-01-06T06:31:40.946Z,25.88
2023-01-06T06:36:42.441Z,25.10
2023-01-06T06:41:44.030Z,24.00
2023-01-06T06:46:45.493Z,23.77
2023-01-06T06:51:47.467Z,21.98
2023-01-06T06:56:48.935Z,21.60
2023-01-06T07:01:50.521Z,20.55
2023-01-06T07:06:52.060Z,20.65
2023-01-06T07:11:53.506Z,20.23
2023-01-06T07:16:54.907Z,19.10
2023-01-06T07:21:56.391Z,19.08
2023-01-06T07:26:57.910Z,17.20
2023-01-06T07:31:59.774Z,18.50
2023-01-06T07:37:01.270Z,19.55
2023-01-06T07:42:02.704Z,20.48
2023-01-06T07:47:04.265Z,21.88
2023-01-06T07:52:05.790Z,22.17
2023-01-06T07:57:07.253Z,23.98
2023-01-06T08:02:11.407Z,24.40
2023-01-06T08:07:13.579Z,23.45
2023-01-06T08:12:15.014Z,23.25
2023-01-06T08:17:16.547Z,24.65
2023-01-06T08:22:18.065Z,24.92
2023-01-06T08:27:20.664Z,24.42
2023-01-06T08:32:22.385Z,25.10
2023-01-06T08:37:23.903Z,27.38
2023-01-06T08:42:25.421Z,25.52
2023-01-06T08:47:26.919Z,26.40
2023-01-06T08:52:28.390Z,28.15
2023-01-06T08:57:29.883Z,24.23
2023-01-06T09:02:31.529Z,22.10
2023-01-06T09:07:32.956Z,21.38
2023-01-06T09:12:34.899Z,21.77
2023-01-06T09:17:36.369Z,19.33
2023-01-06T09:22:37.878Z,17.35
2023-01-06T09:27:39.353Z,14.52
2023-01-06T09:32:40.797Z,10.32
2023-01-06T09:37:42.263Z,10.45
2023-01-06T09:43:13.181Z,8.95
2023-01-06T09:48:21.791Z,8.90
2023-01-06T09:53:30.200Z,6.25
2023-01-06T09:58:37.983Z,5.20
2023-01-06T10:03:39.548Z,3.30
2023-01-06T10:09:07.606Z,2.10
2023-01-06T10:14:19.298Z,1.20
2023-01-06T10:19:42.638Z,1.27
2023-01-06T10:25:02.824Z,1.70
2023-01-06T10:30:16.169Z,2.00
2023-01-06T10:35:21.971Z,1.83
2023-01-06T10:40:26.107Z,2.08
2023-01-06T10:45:45.273Z,2.33
2023-01-06T10:50:47.505Z,2.10
2023-01-06T10:56:00.262Z,1.73
2023-01-06T11:01:10.286Z,2.67
2023-01-06T11:06:17.655Z,2.42
2023-01-06T11:11:27.981Z,2.67
2023-01-06T11:16:32.180Z,2.50
2023-01-06T11:21:40.581Z,2.20
2023-01-06T11:26:51.872Z,2.78
2023-01-06T11:31:54.006Z,1.85
2023-01-06T11:36:55.881Z,1.88
2023-01-06T11:42:04.047Z,2.05
2023-01-06T11:47:13.436Z,2.55
2023-01-06T11:52:17.758Z,2.30
2023-01-06T11:57:26.874Z,7.78
2023-01-06T12:02:49.729Z,2.88
2023-01-06T12:07:55.433Z,2.65
2023-01-06T12:12:56.906Z,2.55
2023-01-06T12:18:00.842Z,3.22
2023-01-06T12:23:16.267Z,2.97
2023-01-06T12:28:34.195Z,2.92
2023-01-06T12:34:03.462Z,2.78
2023-01-06T12:39:31.324Z,3.15
2023-01-06T12:44:38.960Z,2.70
2023-01-06T12:49:50.617Z,2.67
2023-01-06T12:54:56.057Z,3.53
2023-01-06T13:00:22.917Z,1.83
2023-01-06T13:06:00.733Z,2.83
2023-01-06T13:11:24.906Z,2.05
2023-01-06T13:26:57.954Z,5.00
2023-01-06T13:32:17.263Z,2.97
2023-01-06T13:37:38.672Z,2.72
2023-01-06T13:43:00.695Z,3.10
2023-01-06T13:48:08.999Z,2.30
2023-01-06T13:53:18.850Z,3.80
2023-01-06T13:58:23.153Z,3.03
2023-01-06T14:03:24.810Z,3.13
2023-01-06T14:08:30.385Z,2.50
2023-01-06T14:13:39.935Z,3.63
2023-01-06T14:18:53.059Z,3.17
2023-01-06T14:24:03.065Z,2.65
2023-01-06T14:29:44.931Z,4.47
2023-01-06T14:35:14.273Z,2.83
2023-01-06T14:40:29.249Z,3.50
2023-01-06T14:45:41.034Z,3.20
2023-01-06T14:50:47.837Z,2.85
2023-01-06T14:55:50.422Z,2.33
2023-01-06T15:00:53.640Z,2.70
2023-01-06T15:06:20.151Z,3.17
2023-01-06T15:11:33.277Z,3.53
2023-01-06T15:16:39.942Z,4.07
2023-01-06T15:21:43.687Z,4.18
2023-01-06T15:26:45.273Z,2.37
2023-01-06T15:31:49.425Z,2.53
2023-01-06T15:36:54.688Z,3.53
2023-01-06T15:41:57.630Z,2.33
2023-01-06T15:47:11.062Z,2.53
2023-01-06T15:52:27.638Z,3.63
2023-01-06T15:57:35.322Z,4.05
2023-01-06T16:02:37.389Z,3.10
2023-01-06T16:07:41.842Z,4.15
2023-01-06T16:12:43.342Z,3.30
2023-01-06T16:17:46.379Z,3.75
2023-01-06T16:22:55.909Z,4.50
2023-01-06T16:28:00.135Z,8.88
2023-01-06T16:33:02.438Z,8.13
2023-01-06T16:38:04.022Z,8.07
2023-01-06T16:43:05.526Z,5.72
2023-01-06T16:48:07.128Z,8.00
2023-01-06T16:53:24.177Z,8.52
2023-01-06T16:58:29.209Z,3.63
2023-01-06T17:03:34.838Z,3.75
2023-01-06T17:08:38.473Z,2.75
2023-01-06T17:13:45.843Z,3.50
2023-01-06T17:18:54.670Z,3.00
2023-01-06T17:24:05.261Z,3.53
2023-01-06T17:29:14.215Z,3.38
2023-01-06T17:34:21.357Z,3.65
2023-01-06T17:39:26.484Z,2.78
2023-01-06T17:44:37.439Z,3.80
2023-01-06T17:49:38.938Z,2.60
2023-01-06T17:54:59.260Z,2.33
2023-01-06T18:00:02.125Z,2.40
2023-01-06T18:05:33.429Z,3.38
2023-01-06T18:10:37.692Z,2.95
2023-01-06T18:15:39.271Z,2.42
2023-01-06T18:20:40.749Z,2.90
2023-01-06T18:25:42.268Z,2.83
2023-01-06T18:30:46.296Z,3.30
2023-01-06T18:35:52.053Z,2.90
2023-01-06T18:40:54.724Z,3.58
2023-01-06T18:46:01.084Z,3.20
2023-01-06T18:51:06.630Z,4.07
2023-01-06T18:56:18.221Z,3.58
2023-01-06T19:01:30.366Z,2.35
2023-01-06T19:06:50.696Z,2.67
2023-01-06T19:12:16.009Z,2.70
2023-01-06T19:17:40.981Z,3.40
2023-01-06T19:22:43.096Z,2.53
2023-01-06T19:27:54.925Z,5.70
2023-01-06T19:33:18.096Z,2.70
2023-01-06T19:38:26.408Z,2.53
2023-01-06T19:43:32.110Z,3.17
2023-01-06T19:48:41.309Z,2.50
2023-01-06T19:53:45.158Z,2.15
2023-01-06T19:58:52.143Z,2.55
2023-01-06T20:03:55.183Z,3.67
2023-01-06T20:08:56.651Z,2.83
2023-01-06T20:13:58.194Z,2.33
2023-01-06T20:18:59.793Z,2.92
2023-01-06T20:24:01.233Z,2.78
2023-01-06T20:29:04.433Z,3.17
2023-01-06T20:34:05.989Z,1.70
2023-01-06T20:39:07.491Z,3.10
2023-01-06T20:44:08.941Z,2.30
2023-01-06T20:49:11.849Z,2.47
2023-01-06T20:54:13.298Z,3.80
2023-01-06T20:59:14.807Z,3.33
2023-01-06T21:04:16.423Z,2.95
2023-01-06T21:09:18.100Z,2.50
2023-01-06T21:14:19.682Z,3.70
2023-01-06T21:19:21.133Z,3.10
2023-01-06T21:24:22.633Z,5.10
2023-01-06T21:29:24.150Z,3.55
2023-01-06T21:34:25.638Z,4.07
2023-01-06T21:39:27.203Z,3.55
2023-01-06T21:44:28.723Z,3.95
2023-01-06T21:49:30.991Z,3.55
2023-01-06T21:54:32.849Z,4.30
2023-01-06T21:59:34.430Z,3.72
2023-01-06T22:04:35.871Z,3.72
2023-01-06T22:09:40.494Z,4.03
2023-01-06T22:19:46.089Z,3.83
2023-01-06T22:24:49.227Z,4.00
2023-01-06T22:29:50.804Z,4.38
2023-01-06T22:34:52.221Z,4.28
2023-01-06T22:39:53.710Z,4.77
2023-01-06T22:44:55.191Z,3.87
2023-01-06T22:49:57.519Z,4.28
2023-01-06T22:54:59.022Z,4.05
2023-01-06T23:00:00.623Z,4.40
2023-01-06T23:05:03.496Z,4.18
2023-01-06T23:10:05.498Z,4.57
2023-01-06T23:15:08.168Z,6.57
2023-01-06T23:20:10.322Z,5.07
2023-01-06T23:25:12.751Z,5.43
2023-01-06T23:30:14.276Z,5.40
2023-01-06T23:35:15.755Z,6.28
2023-01-06T23:40:17.409Z,5.83
2023-01-06T23:45:18.911Z,5.83
2023-01-06T23:50:20.362Z,6.30
2023-01-06T23:55:21.839Z,6.38
